sensor_id;sensor_type;location;lat;lon;timestamp;noise_LAeq;noise_LA_min;noise_LA_max;noise_LA01;noise_LA95
61321;Laerm;17737;52.586;13.284;2023-05-10T00:01:31;51.98;50.69;55.85;;
61321;Laerm;17737;52.586;13.284;2023-05-10T00:04:01;52.00;50.72;55.16;;
61321;Laerm;17737;52.586;13.284;2023-05-10T00:06:29;52.00;50.58;63.20;;
61321;Laerm;17737;52.586;13.284;2023-05-10T00:08:58;52.01;50.64;66.38;;
61321;Laerm;17737;52.586;13.284;2023-05-10T00:11:26;52.28;50.64;57.57;;
61321;Laerm;17737;52.586;13.284;2023-05-10T00:13:54;51.98;50.72;54.89;;
61321;Laerm;17737;52.586;13.284;2023-05-10T00:16:22;51.98;50.62;54.69;;
61321;Laerm;17737;52.586;13.284;2023-05-10T00:18:50;52.16;50.64;56.79;;
61321;Laerm;17737;52.586;13.284;2023-05-10T00:21:19;52.21;50.50;57.63;;
61321;Laerm;17737;52.586;13.284;2023-05-10T00:23:47;52.15;50.48;55.66;;
61321;Laerm;17737;52.586;13.284;2023-05-10T00:26:15;52.94;50.62;61.50;;
61321;Laerm;17737;52.586;13.284;2023-05-10T00:28:43;51.98;50.63;55.08;;
61321;Laerm;17737;52.586;13.284;2023-05-10T00:31:11;51.98;50.58;54.22;;
61321;Laerm;17737;52.586;13.284;2023-05-10T00:33:41;52.38;50.63;68.38;;
61321;Laerm;17737;52.586;13.284;2023-05-10T00:36:09;52.08;50.73;54.56;;
61321;Laerm;17737;52.586;13.284;2023-05-10T00:38:38;52.12;50.62;55.48;;
61321;Laerm;17737;52.586;13.284;2023-05-10T00:41:07;52.74;50.63;60.87;;
61321;Laerm;17737;52.586;13.284;2023-05-10T00:43:35;53.63;50.59;68.72;;
61321;Laerm;17737;52.586;13.284;2023-05-10T00:46:03;52.15;50.61;55.76;;
61321;Laerm;17737;52.586;13.284;2023-05-10T00:48:32;51.98;50.46;64.64;;
61321;Laerm;17737;52.586;13.284;2023-05-10T00:51:01;51.97;50.57;55.25;;
61321;Laerm;17737;52.586;13.284;2023-05-10T00:53:31;51.97;50.80;53.99;;
61321;Laerm;17737;52.586;13.284;2023-05-10T00:56:01;51.96;50.22;53.85;;
61321;Laerm;17737;52.586;13.284;2023-05-10T00:58:29;51.96;50.66;53.50;;
61321;Laerm;17737;52.586;13.284;2023-05-10T01:00:58;51.96;50.52;54.04;;
61321;Laerm;17737;52.586;13.284;2023-05-10T01:03:27;51.96;50.41;53.67;;
61321;Laerm;17737;52.586;13.284;2023-05-10T01:05:56;52.17;50.58;57.21;;
61321;Laerm;17737;52.586;13.284;2023-05-10T01:08:26;51.97;50.65;53.70;;
61321;Laerm;17737;52.586;13.284;2023-05-10T01:10:54;51.96;50.36;53.94;;
61321;Laerm;17737;52.586;13.284;2023-05-10T01:13:32;51.96;50.63;53.60;;
61321;Laerm;17737;52.586;13.284;2023-05-10T01:16:01;51.97;50.72;54.95;;
61321;Laerm;17737;52.586;13.284;2023-05-10T01:18:33;51.98;50.56;54.74;;
61321;Laerm;17737;52.586;13.284;2023-05-10T01:21:16;52.42;50.66;59.22;;
61321;Laerm;17737;52.586;13.284;2023-05-10T01:24:28;52.69;50.72;59.25;;
61321;Laerm;17737;52.586;13.284;2023-05-10T01:27:43;52.43;50.62;58.78;;
61321;Laerm;17737;52.586;13.284;2023-05-10T01:31:15;52.27;50.61;56.82;;
61321;Laerm;17737;52.586;13.284;2023-05-10T01:33:55;51.99;50.67;54.01;;
61321;Laerm;17737;52.586;13.284;2023-05-10T01:36:31;53.46;50.52;65.44;;
61321;Laerm;17737;52.586;13.284;2023-05-10T01:39:10;52.16;50.39;55.48;;
61321;Laerm;17737;52.586;13.284;2023-05-10T01:41:49;52.01;50.48;66.20;;
61321;Laerm;17737;52.586;13.284;2023-05-10T01:44:35;52.01;50.65;65.44;;
61321;Laerm;17737;52.586;13.284;2023-05-10T01:47:10;52.08;50.68;55.32;;
61321;Laerm;17737;52.586;13.284;2023-05-10T01:49:48;52.00;50.55;56.66;;
61321;Laerm;17737;52.586;13.284;2023-05-10T01:52:26;52.07;50.46;56.73;;
61321;Laerm;17737;52.586;13.284;2023-05-10T01:55:02;52.39;50.46;58.06;;
61321;Laerm;17737;52.586;13.284;2023-05-10T01:57:35;51.99;50.58;53.79;;
61321;Laerm;17737;52.586;13.284;2023-05-10T02:00:06;51.99;50.60;53.70;;
61321;Laerm;17737;52.586;13.284;2023-05-10T02:02:40;52.00;50.59;53.65;;
61321;Laerm;17737;52.586;13.284;2023-05-10T02:05:13;52.00;50.70;55.87;;
61321;Laerm;17737;52.586;13.284;2023-05-10T02:07:43;52.22;50.66;56.65;;
61321;Laerm;17737;52.586;13.284;2023-05-10T02:10:13;51.99;50.68;53.74;;
61321;Laerm;17737;52.586;13.284;2023-05-10T02:12:46;52.00;50.68;53.87;;
61321;Laerm;17737;52.586;13.284;2023-05-10T02:15:22;52.17;50.62;56.88;;
61321;Laerm;17737;52.586;13.284;2023-05-10T02:17:54;52.74;50.50;61.56;;
61321;Laerm;17737;52.586;13.284;2023-05-10T02:20:26;52.72;50.61;59.67;;
61321;Laerm;17737;52.586;13.284;2023-05-10T02:22:57;52.48;50.77;57.21;;
61321;Laerm;17737;52.586;13.284;2023-05-10T02:25:27;52.01;50.63;53.97;;
61321;Laerm;17737;52.586;13.284;2023-05-10T02:28:00;52.00;50.56;53.75;;
61321;Laerm;17737;52.586;13.284;2023-05-10T02:30:31;52.51;50.73;57.13;;
61321;Laerm;17737;52.586;13.284;2023-05-10T02:33:01;53.16;50.68;63.39;;
61321;Laerm;17737;52.586;13.284;2023-05-10T02:35:35;53.48;50.68;67.62;;
61321;Laerm;17737;52.586;13.284;2023-05-10T02:38:05;52.15;50.55;55.62;;
61321;Laerm;17737;52.586;13.284;2023-05-10T02:40:36;52.07;50.76;55.76;;
61321;Laerm;17737;52.586;13.284;2023-05-10T02:43:09;52.20;50.57;55.75;;
61321;Laerm;17737;52.586;13.284;2023-05-10T02:45:41;52.25;50.61;55.65;;
61321;Laerm;17737;52.586;13.284;2023-05-10T02:48:10;52.00;50.80;54.90;;
61321;Laerm;17737;52.586;13.284;2023-05-10T02:50:44;52.81;50.61;62.87;;
61321;Laerm;17737;52.586;13.284;2023-05-10T02:53:18;52.21;50.57;55.96;;
61321;Laerm;17737;52.586;13.284;2023-05-10T02:55:52;52.42;50.72;55.98;;
61321;Laerm;17737;52.586;13.284;2023-05-10T02:58:21;52.05;50.71;55.21;;
61321;Laerm;17737;52.586;13.284;2023-05-10T03:00:49;52.62;50.84;56.68;;
61321;Laerm;17737;52.586;13.284;2023-05-10T03:03:17;52.29;50.61;55.98;;
61321;Laerm;17737;52.586;13.284;2023-05-10T03:05:47;52.52;50.71;57.67;;
61321;Laerm;17737;52.586;13.284;2023-05-10T03:08:15;53.45;50.84;65.92;;
61321;Laerm;17737;52.586;13.284;2023-05-10T03:10:58;52.87;50.66;59.85;;
61321;Laerm;17737;52.586;13.284;2023-05-10T03:13:36;53.11;50.72;61.13;;
61321;Laerm;17737;52.586;13.284;2023-05-10T03:16:12;53.07;50.99;57.66;;
61321;Laerm;17737;52.586;13.284;2023-05-10T03:18:50;53.66;50.60;66.85;;
61321;Laerm;17737;52.586;13.284;2023-05-10T03:21:25;52.44;50.60;58.41;;
61321;Laerm;17737;52.586;13.284;2023-05-10T03:24:07;53.20;50.69;58.57;;
61321;Laerm;17737;52.586;13.284;2023-05-10T03:26:37;52.98;50.92;65.76;;
61321;Laerm;17737;52.586;13.284;2023-05-10T03:29:07;52.29;50.85;55.48;;
61321;Laerm;17737;52.586;13.284;2023-05-10T03:31:36;53.01;50.87;57.31;;
61321;Laerm;17737;52.586;13.284;2023-05-10T03:34:04;52.95;50.76;57.20;;
61321;Laerm;17737;52.586;13.284;2023-05-10T03:36:34;53.98;50.86;62.08;;
61321;Laerm;17737;52.586;13.284;2023-05-10T03:39:02;52.89;50.80;57.87;;
61321;Laerm;17737;52.586;13.284;2023-05-10T03:41:30;57.13;50.89;71.76;;
61321;Laerm;17737;52.586;13.284;2023-05-10T03:43:58;52.86;50.68;57.47;;
61321;Laerm;17737;52.586;13.284;2023-05-10T03:46:26;53.78;50.88;58.47;;
61321;Laerm;17737;52.586;13.284;2023-05-10T03:48:54;52.94;50.81;57.74;;
61321;Laerm;17737;52.586;13.284;2023-05-10T03:51:22;53.59;50.65;59.97;;
61321;Laerm;17737;52.586;13.284;2023-05-10T03:53:57;54.23;50.84;61.54;;
61321;Laerm;17737;52.586;13.284;2023-05-10T03:56:25;53.62;50.68;78.02;;
61321;Laerm;17737;52.586;13.284;2023-05-10T03:58:53;53.45;50.74;65.25;;
61321;Laerm;17737;52.586;13.284;2023-05-10T04:01:21;54.07;50.94;63.51;;
61321;Laerm;17737;52.586;13.284;2023-05-10T04:03:49;53.81;50.69;62.75;;
61321;Laerm;17737;52.586;13.284;2023-05-10T04:06:17;53.50;50.59;58.31;;
61321;Laerm;17737;52.586;13.284;2023-05-10T04:08:45;54.75;50.90;60.30;;
61321;Laerm;17737;52.586;13.284;2023-05-10T04:11:15;53.17;50.84;59.17;;
61321;Laerm;17737;52.586;13.284;2023-05-10T04:13:43;54.22;50.69;60.49;;
61321;Laerm;17737;52.586;13.284;2023-05-10T04:16:11;54.31;50.92;60.35;;
61321;Laerm;17737;52.586;13.284;2023-05-10T04:18:39;56.29;50.84;67.86;;
61321;Laerm;17737;52.586;13.284;2023-05-10T04:21:11;52.70;50.74;57.35;;
61321;Laerm;17737;52.586;13.284;2023-05-10T04:23:40;54.63;50.84;64.59;;
61321;Laerm;17737;52.586;13.284;2023-05-10T04:26:08;55.14;50.85;64.82;;
61321;Laerm;17737;52.586;13.284;2023-05-10T04:28:38;53.31;50.75;58.31;;
61321;Laerm;17737;52.586;13.284;2023-05-10T04:31:09;53.98;50.84;60.40;;
61321;Laerm;17737;52.586;13.284;2023-05-10T04:33:37;54.18;50.83;60.37;;
61321;Laerm;17737;52.586;13.284;2023-05-10T04:36:06;56.14;51.32;63.50;;
61321;Laerm;17737;52.586;13.284;2023-05-10T04:38:34;53.81;50.90;59.52;;
61321;Laerm;17737;52.586;13.284;2023-05-10T04:41:06;53.89;51.08;59.57;;
61321;Laerm;17737;52.586;13.284;2023-05-10T04:43:35;53.60;51.01;59.64;;
61321;Laerm;17737;52.586;13.284;2023-05-10T04:46:05;56.15;51.00;65.65;;
61321;Laerm;17737;52.586;13.284;2023-05-10T04:48:33;54.81;51.34;62.39;;
61321;Laerm;17737;52.586;13.284;2023-05-10T04:51:02;54.09;51.32;60.57;;
61321;Laerm;17737;52.586;13.284;2023-05-10T04:53:31;53.70;51.18;57.83;;
61321;Laerm;17737;52.586;13.284;2023-05-10T04:55:59;53.92;51.23;59.99;;
61321;Laerm;17737;52.586;13.284;2023-05-10T04:58:27;54.35;51.29;63.38;;
61321;Laerm;17737;52.586;13.284;2023-05-10T05:00:55;54.32;51.20;61.21;;
61321;Laerm;17737;52.586;13.284;2023-05-10T05:03:25;54.16;51.16;60.57;;
61321;Laerm;17737;52.586;13.284;2023-05-10T05:05:55;54.67;51.36;60.07;;
61321;Laerm;17737;52.586;13.284;2023-05-10T05:08:24;54.51;51.14;60.35;;
61321;Laerm;17737;52.586;13.284;2023-05-10T05:10:52;54.39;51.00;60.38;;
61321;Laerm;17737;52.586;13.284;2023-05-10T05:13:20;53.76;50.92;58.43;;
61321;Laerm;17737;52.586;13.284;2023-05-10T05:15:48;57.88;51.21;69.44;;
61321;Laerm;17737;52.586;13.284;2023-05-10T05:18:16;58.18;55.63;66.93;;
61321;Laerm;17737;52.586;13.284;2023-05-10T05:20:45;66.03;50.87;90.78;;
61321;Laerm;17737;52.586;13.284;2023-05-10T05:23:13;55.21;51.28;61.79;;
61321;Laerm;17737;52.586;13.284;2023-05-10T05:25:41;54.17;51.06;58.72;;
61321;Laerm;17737;52.586;13.284;2023-05-10T05:28:09;55.27;50.93;61.34;;
61321;Laerm;17737;52.586;13.284;2023-05-10T05:30:37;53.92;50.99;59.01;;
61321;Laerm;17737;52.586;13.284;2023-05-10T05:33:05;54.29;50.79;60.68;;
61321;Laerm;17737;52.586;13.284;2023-05-10T05:35:33;54.37;50.86;59.89;;
61321;Laerm;17737;52.586;13.284;2023-05-10T05:38:03;53.60;50.85;58.16;;
61321;Laerm;17737;52.586;13.284;2023-05-10T05:40:31;55.02;51.00;61.89;;
61321;Laerm;17737;52.586;13.284;2023-05-10T05:42:59;55.44;51.11;64.37;;
61321;Laerm;17737;52.586;13.284;2023-05-10T05:45:27;54.17;50.97;61.58;;
61321;Laerm;17737;52.586;13.284;2023-05-10T05:47:55;54.76;50.87;60.83;;
61321;Laerm;17737;52.586;13.284;2023-05-10T05:50:23;54.97;51.27;63.05;;
61321;Laerm;17737;52.586;13.284;2023-05-10T05:52:51;56.13;51.68;61.98;;
61321;Laerm;17737;52.586;13.284;2023-05-10T05:55:20;58.57;52.78;69.47;;
61321;Laerm;17737;52.586;13.284;2023-05-10T05:57:48;59.25;51.27;66.29;;
61321;Laerm;17737;52.586;13.284;2023-05-10T06:00:17;54.86;50.96;66.44;;
61321;Laerm;17737;52.586;13.284;2023-05-10T06:02:45;53.69;51.08;59.20;;
61321;Laerm;17737;52.586;13.284;2023-05-10T06:05:13;54.79;50.85;60.97;;
61321;Laerm;17737;52.586;13.284;2023-05-10T06:07:42;53.84;50.91;66.70;;
61321;Laerm;17737;52.586;13.284;2023-05-10T06:10:10;53.66;50.68;59.30;;
61321;Laerm;17737;52.586;13.284;2023-05-10T06:12:39;55.81;50.89;65.89;;
61321;Laerm;17737;52.586;13.284;2023-05-10T06:15:09;54.69;51.20;64.42;;
61321;Laerm;17737;52.586;13.284;2023-05-10T06:17:37;54.11;50.94;58.44;;
61321;Laerm;17737;52.586;13.284;2023-05-10T06:20:07;54.27;51.04;61.55;;
61321;Laerm;17737;52.586;13.284;2023-05-10T06:22:35;54.37;50.89;64.84;;
61321;Laerm;17737;52.586;13.284;2023-05-10T06:25:06;53.63;50.52;61.99;;
61321;Laerm;17737;52.586;13.284;2023-05-10T06:27:35;54.56;50.72;63.37;;
61321;Laerm;17737;52.586;13.284;2023-05-10T06:30:06;54.96;51.03;60.99;;
61321;Laerm;17737;52.586;13.284;2023-05-10T06:32:39;54.46;51.05;60.00;;
61321;Laerm;17737;52.586;13.284;2023-05-10T06:35:08;54.11;51.03;59.29;;
61321;Laerm;17737;52.586;13.284;2023-05-10T06:37:37;53.61;50.81;62.58;;
61321;Laerm;17737;52.586;13.284;2023-05-10T06:40:06;53.45;50.61;58.18;;
61321;Laerm;17737;52.586;13.284;2023-05-10T06:42:36;54.33;50.89;58.84;;
61321;Laerm;17737;52.586;13.284;2023-05-10T06:45:08;53.81;50.46;64.01;;
61321;Laerm;17737;52.586;13.284;2023-05-10T06:47:36;54.97;51.17;64.52;;
61321;Laerm;17737;52.586;13.284;2023-05-10T06:50:07;53.42;50.89;60.15;;
61321;Laerm;17737;52.586;13.284;2023-05-10T06:52:41;54.20;50.71;60.15;;
61321;Laerm;17737;52.586;13.284;2023-05-10T06:55:11;54.87;50.72;61.39;;
61321;Laerm;17737;52.586;13.284;2023-05-10T06:57:40;57.02;52.41;64.92;;
61321;Laerm;17737;52.586;13.284;2023-05-10T07:00:11;56.32;51.88;63.41;;
61321;Laerm;17737;52.586;13.284;2023-05-10T07:02:41;58.72;52.81;66.13;;
61321;Laerm;17737;52.586;13.284;2023-05-10T07:05:11;60.20;51.47;79.41;;
61321;Laerm;17737;52.586;13.284;2023-05-10T07:07:40;54.54;51.16;60.87;;
61321;Laerm;17737;52.586;13.284;2023-05-10T07:10:10;54.26;51.23;65.73;;
61321;Laerm;17737;52.586;13.284;2023-05-10T07:12:39;56.53;52.01;64.51;;
61321;Laerm;17737;52.586;13.284;2023-05-10T07:15:12;56.73;51.05;64.11;;
61321;Laerm;17737;52.586;13.284;2023-05-10T07:17:42;57.09;50.86;65.90;;
61321;Laerm;17737;52.586;13.284;2023-05-10T07:20:17;53.70;50.80;58.49;;
61321;Laerm;17737;52.586;13.284;2023-05-10T07:22:48;54.58;50.85;63.77;;
61321;Laerm;17737;52.586;13.284;2023-05-10T07:25:17;53.79;50.82;69.53;;
61321;Laerm;17737;52.586;13.284;2023-05-10T07:27:46;53.59;50.55;62.97;;
61321;Laerm;17737;52.586;13.284;2023-05-10T07:30:18;53.16;50.84;57.93;;
61321;Laerm;17737;52.586;13.284;2023-05-10T07:32:46;54.78;50.71;62.47;;
61321;Laerm;17737;52.586;13.284;2023-05-10T07:35:14;54.10;50.74;61.43;;
61321;Laerm;17737;52.586;13.284;2023-05-10T07:37:42;53.23;50.75;59.56;;
61321;Laerm;17737;52.586;13.284;2023-05-10T07:40:10;53.33;50.87;70.17;;
61321;Laerm;17737;52.586;13.284;2023-05-10T07:42:38;55.55;51.50;67.20;;
61321;Laerm;17737;52.586;13.284;2023-05-10T07:45:09;55.45;51.08;70.06;;
61321;Laerm;17737;52.586;13.284;2023-05-10T07:47:41;57.42;51.12;78.83;;
61321;Laerm;17737;52.586;13.284;2023-05-10T07:50:11;59.11;50.85;81.36;;
61321;Laerm;17737;52.586;13.284;2023-05-10T07:52:40;53.01;50.60;63.18;;
61321;Laerm;17737;52.586;13.284;2023-05-10T07:55:10;52.89;50.75;61.50;;
61321;Laerm;17737;52.586;13.284;2023-05-10T07:57:41;54.14;50.79;64.08;;
61321;Laerm;17737;52.586;13.284;2023-05-10T08:00:18;53.21;50.69;58.98;;
61321;Laerm;17737;52.586;13.284;2023-05-10T08:02:50;53.07;50.75;57.84;;
61321;Laerm;17737;52.586;13.284;2023-05-10T08:05:20;52.92;50.69;57.55;;
61321;Laerm;17737;52.586;13.284;2023-05-10T08:07:50;54.13;50.49;64.42;;
61321;Laerm;17737;52.586;13.284;2023-05-10T08:10:19;53.78;50.69;64.51;;
61321;Laerm;17737;52.586;13.284;2023-05-10T08:12:48;54.04;50.83;64.33;;
61321;Laerm;17737;52.586;13.284;2023-05-10T08:15:18;54.17;51.01;65.24;;
61321;Laerm;17737;52.586;13.284;2023-05-10T08:17:49;53.48;50.67;62.69;;
61321;Laerm;17737;52.586;13.284;2023-05-10T08:20:17;53.25;50.69;58.76;;
61321;Laerm;17737;52.586;13.284;2023-05-10T08:22:46;52.81;50.80;63.81;;
61321;Laerm;17737;52.586;13.284;2023-05-10T08:25:17;53.15;50.68;61.00;;
61321;Laerm;17737;52.586;13.284;2023-05-10T08:27:45;53.78;50.68;58.11;;
61321;Laerm;17737;52.586;13.284;2023-05-10T08:30:13;52.43;50.46;57.08;;
61321;Laerm;17737;52.586;13.284;2023-05-10T08:32:41;54.68;50.64;62.99;;
61321;Laerm;17737;52.586;13.284;2023-05-10T08:35:11;53.03;50.70;58.73;;
61321;Laerm;17737;52.586;13.284;2023-05-10T08:37:39;53.68;50.55;63.42;;
61321;Laerm;17737;52.586;13.284;2023-05-10T08:40:11;53.18;50.39;58.20;;
61321;Laerm;17737;52.586;13.284;2023-05-10T08:42:43;53.81;50.72;62.14;;
61321;Laerm;17737;52.586;13.284;2023-05-10T08:45:16;53.75;50.71;59.80;;
61321;Laerm;17737;52.586;13.284;2023-05-10T08:47:45;53.80;50.71;63.13;;
61321;Laerm;17737;52.586;13.284;2023-05-10T08:50:17;54.74;50.52;69.86;;
61321;Laerm;17737;52.586;13.284;2023-05-10T08:52:52;53.53;50.66;60.41;;
61321;Laerm;17737;52.586;13.284;2023-05-10T08:55:22;53.02;50.63;58.73;;
61321;Laerm;17737;52.586;13.284;2023-05-10T08:57:51;54.67;50.78;64.81;;
61321;Laerm;17737;52.586;13.284;2023-05-10T09:00:20;54.38;50.59;61.28;;
61321;Laerm;17737;52.586;13.284;2023-05-10T09:02:50;53.01;50.66;57.04;;
61321;Laerm;17737;52.586;13.284;2023-05-10T09:05:20;52.78;50.65;64.64;;
61321;Laerm;17737;52.586;13.284;2023-05-10T09:07:48;53.46;50.52;63.29;;
61321;Laerm;17737;52.586;13.284;2023-05-10T09:10:16;52.81;50.67;64.95;;
61321;Laerm;17737;52.586;13.284;2023-05-10T09:12:48;53.71;50.79;59.54;;
61321;Laerm;17737;52.586;13.284;2023-05-10T09:15:17;52.86;50.44;63.38;;
61321;Laerm;17737;52.586;13.284;2023-05-10T09:17:47;53.36;50.55;60.33;;
61321;Laerm;17737;52.586;13.284;2023-05-10T09:20:16;53.09;50.46;59.06;;
61321;Laerm;17737;52.586;13.284;2023-05-10T09:22:46;53.65;50.97;61.41;;
61321;Laerm;17737;52.586;13.284;2023-05-10T09:25:16;53.40;50.66;63.43;;
61321;Laerm;17737;52.586;13.284;2023-05-10T09:27:47;53.33;50.69;67.25;;
61321;Laerm;17737;52.586;13.284;2023-05-10T09:30:17;53.35;50.72;63.68;;
61321;Laerm;17737;52.586;13.284;2023-05-10T09:32:47;54.49;51.03;59.23;;
61321;Laerm;17737;52.586;13.284;2023-05-10T09:35:19;53.47;50.60;60.27;;
61321;Laerm;17737;52.586;13.284;2023-05-10T09:37:51;53.66;50.54;64.10;;
61321;Laerm;17737;52.586;13.284;2023-05-10T09:40:22;53.63;50.75;60.07;;
61321;Laerm;17737;52.586;13.284;2023-05-10T09:42:55;52.71;50.49;57.83;;
61321;Laerm;17737;52.586;13.284;2023-05-10T09:45:25;52.88;50.65;57.24;;
61321;Laerm;17737;52.586;13.284;2023-05-10T09:47:54;53.45;50.80;58.66;;
61321;Laerm;17737;52.586;13.284;2023-05-10T09:50:23;53.07;50.55;63.40;;
61321;Laerm;17737;52.586;13.284;2023-05-10T09:52:55;53.44;50.91;60.60;;
61321;Laerm;17737;52.586;13.284;2023-05-10T09:55:37;52.89;50.78;58.84;;
61321;Laerm;17737;52.586;13.284;2023-05-10T09:58:06;54.30;50.55;67.02;;
61321;Laerm;17737;52.586;13.284;2023-05-10T10:00:39;53.07;50.67;69.83;;
61321;Laerm;17737;52.586;13.284;2023-05-10T10:03:13;53.08;50.65;64.37;;
61321;Laerm;17737;52.586;13.284;2023-05-10T10:05:43;54.03;50.69;70.63;;
61321;Laerm;17737;52.586;13.284;2023-05-10T10:08:13;54.50;50.84;69.90;;
61321;Laerm;17737;52.586;13.284;2023-05-10T10:10:42;53.23;50.47;59.49;;
61321;Laerm;17737;52.586;13.284;2023-05-10T10:13:13;52.31;50.74;58.78;;
61321;Laerm;17737;52.586;13.284;2023-05-10T10:15:42;53.82;50.60;63.55;;
61321;Laerm;17737;52.586;13.284;2023-05-10T10:18:13;53.25;50.61;58.75;;
61321;Laerm;17737;52.586;13.284;2023-05-10T10:20:42;53.42;50.70;58.79;;
61321;Laerm;17737;52.586;13.284;2023-05-10T10:23:10;53.85;50.67;62.20;;
61321;Laerm;17737;52.586;13.284;2023-05-10T10:25:41;53.90;50.69;63.31;;
61321;Laerm;17737;52.586;13.284;2023-05-10T10:28:24;53.77;50.80;65.05;;
61321;Laerm;17737;52.586;13.284;2023-05-10T10:30:56;52.97;50.64;59.85;;
61321;Laerm;17737;52.586;13.284;2023-05-10T10:33:54;54.32;50.80;64.17;;
61321;Laerm;17737;52.586;13.284;2023-05-10T10:36:24;53.94;50.82;60.24;;
61321;Laerm;17737;52.586;13.284;2023-05-10T10:39:00;53.73;50.43;60.94;;
61321;Laerm;17737;52.586;13.284;2023-05-10T10:41:33;53.50;50.69;60.61;;
61321;Laerm;17737;52.586;13.284;2023-05-10T10:44:41;53.44;50.52;59.43;;
61321;Laerm;17737;52.586;13.284;2023-05-10T10:47:23;54.48;50.62;67.57;;
61321;Laerm;17737;52.586;13.284;2023-05-10T10:50:04;53.42;50.58;62.88;;
61321;Laerm;17737;52.586;13.284;2023-05-10T10:52:34;54.34;50.64;66.83;;
61321;Laerm;17737;52.586;13.284;2023-05-10T10:55:06;53.80;50.50;63.57;;
61321;Laerm;17737;52.586;13.284;2023-05-10T10:57:46;53.73;50.70;61.80;;
61321;Laerm;17737;52.586;13.284;2023-05-10T11:00:27;53.48;50.56;61.33;;
61321;Laerm;17737;52.586;13.284;2023-05-10T11:03:00;53.41;50.64;57.66;;
61321;Laerm;17737;52.586;13.284;2023-05-10T11:05:37;53.95;50.60;60.13;;
61321;Laerm;17737;52.586;13.284;2023-05-10T11:08:13;53.21;50.74;59.69;;
61321;Laerm;17737;52.586;13.284;2023-05-10T11:10:51;54.13;50.82;60.57;;
61321;Laerm;17737;52.586;13.284;2023-05-10T11:13:32;53.39;50.69;60.49;;
61321;Laerm;17737;52.586;13.284;2023-05-10T11:16:15;54.29;50.51;60.71;;
61321;Laerm;17737;52.586;13.284;2023-05-10T11:19:07;53.83;50.68;64.05;;
61321;Laerm;17737;52.586;13.284;2023-05-10T11:21:46;53.43;50.62;58.49;;
61321;Laerm;17737;52.586;13.284;2023-05-10T11:24:17;54.85;50.52;72.07;;
61321;Laerm;17737;52.586;13.284;2023-05-10T11:26:45;54.03;50.82;61.16;;
61321;Laerm;17737;52.586;13.284;2023-05-10T11:29:16;54.02;50.63;62.27;;
61321;Laerm;17737;52.586;13.284;2023-05-10T11:31:45;53.31;50.73;61.02;;
61321;Laerm;17737;52.586;13.284;2023-05-10T11:34:24;53.21;50.68;64.24;;
61321;Laerm;17737;52.586;13.284;2023-05-10T11:36:53;54.66;50.55;62.30;;
61321;Laerm;17737;52.586;13.284;2023-05-10T11:39:27;53.06;50.53;63.33;;
61321;Laerm;17737;52.586;13.284;2023-05-10T11:41:55;53.53;50.88;58.22;;
61321;Laerm;17737;52.586;13.284;2023-05-10T11:44:29;53.99;50.98;63.07;;
61321;Laerm;17737;52.586;13.284;2023-05-10T11:46:59;54.84;50.96;67.06;;
61321;Laerm;17737;52.586;13.284;2023-05-10T11:49:27;54.65;50.81;65.54;;
61321;Laerm;17737;52.586;13.284;2023-05-10T11:52:04;54.59;50.85;62.94;;
61321;Laerm;17737;52.586;13.284;2023-05-10T11:54:32;54.10;50.30;61.93;;
61321;Laerm;17737;52.586;13.284;2023-05-10T11:57:01;53.25;50.59;61.80;;
61321;Laerm;17737;52.586;13.284;2023-05-10T11:59:31;53.34;50.56;59.70;;
61321;Laerm;17737;52.586;13.284;2023-05-10T12:01:59;54.56;50.68;65.15;;
61321;Laerm;17737;52.586;13.284;2023-05-10T12:04:27;54.32;50.63;67.75;;
61321;Laerm;17737;52.586;13.284;2023-05-10T12:06:56;52.67;50.58;62.52;;
61321;Laerm;17737;52.586;13.284;2023-05-10T12:09:24;53.17;50.73;57.35;;
61321;Laerm;17737;52.586;13.284;2023-05-10T12:12:08;53.60;50.45;57.95;;
61321;Laerm;17737;52.586;13.284;2023-05-10T12:14:38;52.80;50.20;58.03;;
61321;Laerm;17737;52.586;13.284;2023-05-10T12:17:05;53.98;50.16;60.84;;
61321;Laerm;17737;52.586;13.284;2023-05-10T12:19:37;53.32;50.78;59.62;;
61321;Laerm;17737;52.586;13.284;2023-05-10T12:22:06;53.24;50.42;61.75;;
61321;Laerm;17737;52.586;13.284;2023-05-10T12:24:34;53.65;50.57;59.85;;
61321;Laerm;17737;52.586;13.284;2023-05-10T12:27:05;53.72;50.54;58.52;;
61321;Laerm;17737;52.586;13.284;2023-05-10T12:29:34;53.17;50.32;62.93;;
61321;Laerm;17737;52.586;13.284;2023-05-10T12:32:04;53.78;50.69;58.55;;
61321;Laerm;17737;52.586;13.284;2023-05-10T12:34:34;52.94;50.65;61.33;;
61321;Laerm;17737;52.586;13.284;2023-05-10T12:37:03;54.77;50.75;70.02;;
61321;Laerm;17737;52.586;13.284;2023-05-10T12:39:39;53.76;50.01;61.67;;
61321;Laerm;17737;52.586;13.284;2023-05-10T12:42:08;54.57;50.95;62.54;;
61321;Laerm;17737;52.586;13.284;2023-05-10T12:44:36;53.40;50.70;59.51;;
61321;Laerm;17737;52.586;13.284;2023-05-10T12:47:06;54.91;50.90;65.55;;
61321;Laerm;17737;52.586;13.284;2023-05-10T12:49:34;54.07;50.70;61.80;;
61321;Laerm;17737;52.586;13.284;2023-05-10T12:52:02;53.65;50.69;62.09;;
61321;Laerm;17737;52.586;13.284;2023-05-10T12:54:30;53.77;50.72;63.28;;
61321;Laerm;17737;52.586;13.284;2023-05-10T12:56:58;54.26;51.09;60.00;;
61321;Laerm;17737;52.586;13.284;2023-05-10T12:59:26;53.37;50.86;59.38;;
61321;Laerm;17737;52.586;13.284;2023-05-10T13:01:54;54.66;50.90;65.03;;
61321;Laerm;17737;52.586;13.284;2023-05-10T13:04:23;53.68;50.69;61.62;;
61321;Laerm;17737;52.586;13.284;2023-05-10T13:06:51;55.57;50.64;73.89;;
61321;Laerm;17737;52.586;13.284;2023-05-10T13:09:22;54.17;50.74;63.33;;
61321;Laerm;17737;52.586;13.284;2023-05-10T13:11:50;54.07;50.83;58.48;;
61321;Laerm;17737;52.586;13.284;2023-05-10T13:14:20;54.20;50.86;59.35;;
61321;Laerm;17737;52.586;13.284;2023-05-10T13:16:48;54.60;51.05;58.93;;
61321;Laerm;17737;52.586;13.284;2023-05-10T13:19:16;53.56;50.50;57.84;;
61321;Laerm;17737;52.586;13.284;2023-05-10T13:21:46;54.19;50.64;63.85;;
61321;Laerm;17737;52.586;13.284;2023-05-10T13:24:14;54.29;50.86;59.21;;
61321;Laerm;17737;52.586;13.284;2023-05-10T13:26:43;53.84;50.68;61.35;;
61321;Laerm;17737;52.586;13.284;2023-05-10T13:29:11;55.05;51.07;61.23;;
61321;Laerm;17737;52.586;13.284;2023-05-10T13:31:39;53.80;50.63;59.95;;
61321;Laerm;17737;52.586;13.284;2023-05-10T13:34:07;53.55;50.39;66.88;;
61321;Laerm;17737;52.586;13.284;2023-05-10T13:36:35;53.94;50.86;59.22;;
61321;Laerm;17737;52.586;13.284;2023-05-10T13:39:05;54.49;50.89;61.62;;
61321;Laerm;17737;52.586;13.284;2023-05-10T13:41:32;54.65;50.93;62.98;;
61321;Laerm;17737;52.586;13.284;2023-05-10T13:44:00;53.41;50.50;58.27;;
61321;Laerm;17737;52.586;13.284;2023-05-10T13:46:29;53.22;50.54;59.07;;
61321;Laerm;17737;52.586;13.284;2023-05-10T13:48:57;54.35;50.87;65.78;;
61321;Laerm;17737;52.586;13.284;2023-05-10T13:51:25;54.96;52.02;58.71;;
61321;Laerm;17737;52.586;13.284;2023-05-10T13:53:53;54.66;50.77;64.66;;